Time;durP1;ratioP1;P1;durP2;ratioP2;P2;SDS_P1;SDS_P2;PMS_P1;PMS_P2;Temp;Humidity;BMP_temperature;BMP_pressure;BME280_temperature;BME280_humidity;BME280_pressure;Samples;Min_cycle;Max_cycle;Signal;HPM_P1;HPM_P2
2022/01/31 00:00:36;;;;;;;24.38;3.83;;;4.60;99.90;;;;;;5035953;28;20029;-50
2022/01/31 00:03:02;;;;;;;12.40;3.90;;;4.60;99.90;;;;;;5034697;28;20037;-49
2022/01/31 00:05:28;;;;;;;16.00;3.90;;;4.60;99.90;;;;;;5034640;28;20021;-51
2022/01/31 00:07:54;;;;;;;21.05;2.63;;;4.80;99.90;;;;;;5035844;28;20029;-50
2022/01/31 00:10:28;;;;;;;9.57;2.83;;;5.20;99.90;;;;;;5034790;28;20067;-49
2022/01/31 00:15:26;;;;;;;14.20;3.25;;;5.00;99.90;;;;;;5035724;28;20018;-50
2022/01/31 00:17:52;;;;;;;15.93;3.20;;;4.90;99.90;;;;;;5035144;28;20112;-49
2022/01/31 00:20:18;;;;;;;11.23;3.10;;;4.80;99.90;;;;;;5034104;28;20053;-49
2022/01/31 00:22:43;;;;;;;15.38;2.55;;;4.70;99.90;;;;;;5035235;28;20027;-52
2022/01/31 00:25:09;;;;;;;7.75;2.65;;;4.80;99.90;;;;;;5033904;28;20029;-50
2022/01/31 00:27:35;;;;;;;9.35;2.33;;;4.80;99.90;;;;;;5033838;28;20029;-49
2022/01/31 00:30:01;;;;;;;12.32;2.78;;;5.10;99.90;;;;;;5033627;28;20028;-49
2022/01/31 00:32:29;;;;;;;17.17;2.28;;;5.30;99.90;;;;;;5033770;28;20032;-50
2022/01/31 00:34:59;;;;;;;14.98;2.58;;;5.30;99.90;;;;;;5035009;28;20395;-48
2022/01/31 00:37:25;;;;;;;8.57;2.03;;;5.30;99.90;;;;;;5035020;28;20030;-50
2022/01/31 00:39:51;;;;;;;12.07;2.63;;;5.20;99.90;;;;;;5034861;28;20025;-49
2022/01/31 00:42:19;;;;;;;17.63;3.33;;;5.30;99.90;;;;;;5034833;28;20026;-49
2022/01/31 00:44:58;;;;;;;11.48;2.15;;;5.20;99.90;;;;;;5033378;28;20021;-49
2022/01/31 00:47:27;;;;;;;13.77;2.47;;;5.10;99.90;;;;;;5033792;28;20021;-49
2022/01/31 00:50:05;;;;;;;8.75;2.50;;;5.20;99.90;;;;;;5033361;28;20025;-49
2022/01/31 00:52:30;;;;;;;6.72;2.30;;;5.30;99.90;;;;;;5035198;28;20113;-49
2022/01/31 00:54:56;;;;;;;8.18;1.67;;;5.30;99.90;;;;;;5034583;28;20053;-49
2022/01/31 00:57:21;;;;;;;16.10;2.97;;;5.70;99.90;;;;;;5033248;28;20124;-50
2022/01/31 00:59:51;;;;;;;11.40;2.05;;;5.90;99.90;;;;;;5035039;28;20037;-49
2022/01/31 01:02:20;;;;;;;19.35;2.47;;;6.20;99.90;;;;;;5033142;28;20029;-49
2022/01/31 01:04:47;;;;;;;10.77;2.22;;;6.30;99.90;;;;;;5034303;28;20026;-50
2022/01/31 01:07:14;;;;;;;10.18;2.42;;;6.40;99.90;;;;;;5034650;28;20144;-51
2022/01/31 01:09:41;;;;;;;9.38;1.88;;;6.50;99.90;;;;;;5034232;28;20029;-50
2022/01/31 01:12:08;;;;;;;11.25;2.00;;;6.50;99.90;;;;;;5034291;28;20032;-53
2022/01/31 01:14:34;;;;;;;5.28;1.60;;;6.50;99.90;;;;;;5033151;28;20026;-51
2022/01/31 01:20:21;;;;;;;9.23;1.87;;;6.70;99.90;;;;;;5034261;28;20506;-49
2022/01/31 01:22:47;;;;;;;12.88;2.00;;;6.60;99.90;;;;;;5033094;28;20030;-52
2022/01/31 01:25:14;;;;;;;9.45;2.72;;;6.60;99.90;;;;;;5032648;28;20032;-53
2022/01/31 01:27:42;;;;;;;7.68;1.85;;;6.60;99.90;;;;;;5033452;28;20029;-49
2022/01/31 01:30:10;;;;;;;11.02;1.75;;;6.60;99.90;;;;;;5032583;28;20024;-54
2022/01/31 01:32:45;;;;;;;7.97;1.65;;;6.70;99.90;;;;;;5033888;28;20039;-49
2022/01/31 01:35:11;;;;;;;6.13;1.98;;;6.60;99.90;;;;;;5033847;28;20018;-51
2022/01/31 01:37:37;;;;;;;8.00;2.35;;;6.70;99.90;;;;;;5032928;28;20028;-49
2022/01/31 01:40:04;;;;;;;12.57;2.25;;;6.70;99.90;;;;;;5033893;28;20113;-48
2022/01/31 01:42:29;;;;;;;12.75;2.90;;;6.60;99.90;;;;;;5032419;28;20462;-49
2022/01/31 01:44:55;;;;;;;11.07;1.65;;;6.50;99.90;;;;;;5032325;28;20129;-49
2022/01/31 01:47:23;;;;;;;16.50;3.42;;;6.40;99.90;;;;;;5033668;28;20096;-48
2022/01/31 01:49:49;;;;;;;10.70;1.80;;;6.50;99.90;;;;;;5033540;28;20028;-49
2022/01/31 01:52:16;;;;;;;11.00;2.08;;;6.50;99.90;;;;;;5032338;28;20026;-49
2022/01/31 01:54:42;;;;;;;6.95;1.75;;;6.60;99.90;;;;;;5033483;28;20022;-49
2022/01/31 01:57:08;;;;;;;11.10;2.03;;;6.60;99.90;;;;;;5033747;28;20037;-49
2022/01/31 01:59:34;;;;;;;6.45;1.65;;;6.60;99.90;;;;;;5032008;28;20040;-49
2022/01/31 02:02:04;;;;;;;14.30;2.20;;;6.60;99.90;;;;;;5031983;28;20120;-49
2022/01/31 02:04:31;;;;;;;6.10;1.63;;;6.60;99.90;;;;;;5033284;28;20025;-48
2022/01/31 02:06:57;;;;;;;12.90;2.35;;;6.70;99.90;;;;;;5032014;28;20025;-49
2022/01/31 02:09:24;;;;;;;7.90;2.38;;;6.50;99.90;;;;;;5032175;28;20024;-49
2022/01/31 02:11:50;;;;;;;13.52;2.30;;;6.70;99.90;;;;;;5032219;28;20025;-50
2022/01/31 02:14:17;;;;;;;6.25;1.95;;;6.70;99.90;;;;;;5033503;28;20025;-48
2022/01/31 02:16:42;;;;;;;9.88;1.85;;;6.50;99.90;;;;;;5031848;28;20029;-49
2022/01/31 02:19:13;;;;;;;9.27;1.98;;;6.70;99.90;;;;;;5032990;28;20078;-49
2022/01/31 02:21:39;;;;;;;9.25;1.88;;;6.60;99.90;;;;;;5031857;28;20029;-49
2022/01/31 02:24:05;;;;;;;9.60;2.70;;;6.30;99.90;;;;;;5032038;28;20025;-49
2022/01/31 02:26:30;;;;;;;8.82;1.88;;;6.40;99.90;;;;;;5032878;28;20030;-50
2022/01/31 02:28:56;;;;;;;15.02;2.00;;;6.20;99.90;;;;;;5031678;28;20029;-50
2022/01/31 02:31:22;;;;;;;6.97;1.85;;;6.40;99.90;;;;;;5033032;28;20055;-49
2022/01/31 02:33:47;;;;;;;10.15;2.55;;;6.30;99.90;;;;;;5032917;28;20029;-49
2022/01/31 02:36:13;;;;;;;17.83;3.03;;;6.10;99.90;;;;;;5031991;28;20387;-49
2022/01/31 02:38:39;;;;;;;9.52;1.85;;;6.10;99.90;;;;;;5031618;28;20151;-49
2022/01/31 02:41:04;;;;;;;11.10;2.67;;;6.10;99.90;;;;;;5031925;28;20029;-49
2022/01/31 02:43:32;;;;;;;9.65;1.90;;;6.10;99.90;;;;;;5034399;28;20060;-49
2022/01/31 02:45:59;;;;;;;10.90;2.05;;;6.10;99.90;;;;;;5037259;28;20021;-49
2022/01/31 02:48:27;;;;;;;10.65;2.20;;;6.30;99.90;;;;;;5036504;28;20021;-49
2022/01/31 02:50:54;;;;;;;7.15;2.17;;;6.50;99.90;;;;;;5036913;28;20022;-50
2022/01/31 02:53:29;;;;;;;8.93;1.70;;;6.30;99.90;;;;;;5035527;28;20034;-53
2022/01/31 02:55:58;;;;;;;11.65;1.67;;;6.30;99.90;;;;;;5037046;28;20025;-49
2022/01/31 02:58:25;;;;;;;15.52;1.65;;;6.40;99.90;;;;;;5035760;28;20387;-49
2022/01/31 03:00:53;;;;;;;7.47;1.75;;;6.60;99.90;;;;;;5035574;28;20029;-49
2022/01/31 03:03:19;;;;;;;8.88;1.63;;;6.60;99.90;;;;;;5035624;28;20029;-51
2022/01/31 03:05:45;;;;;;;13.60;1.67;;;6.40;99.90;;;;;;5035695;28;20026;-50
2022/01/31 03:08:11;;;;;;;19.85;2.20;;;6.50;99.90;;;;;;5035296;28;20021;-54
2022/01/31 03:10:37;;;;;;;14.95;2.30;;;6.50;99.90;;;;;;5035527;28;20025;-54
2022/01/31 03:13:03;;;;;;;19.00;2.17;;;6.50;99.90;;;;;;5036420;28;20026;-50
2022/01/31 03:15:29;;;;;;;8.10;2.10;;;6.70;99.90;;;;;;5035942;28;20060;-49
2022/01/31 03:17:55;;;;;;;10.25;2.28;;;6.70;99.90;;;;;;5035889;28;20115;-52
2022/01/31 03:20:23;;;;;;;7.72;1.77;;;6.70;99.90;;;;;;5035323;28;20026;-55
2022/01/31 03:22:50;;;;;;;10.63;1.85;;;6.40;99.90;;;;;;5035098;28;20451;-52
2022/01/31 03:25:16;;;;;;;6.10;1.83;;;6.30;99.90;;;;;;5036261;28;20045;-49
2022/01/31 03:27:43;;;;;;;12.20;1.70;;;6.30;99.90;;;;;;5034951;28;20040;-52
2022/01/31 03:30:12;;;;;;;14.43;2.63;;;6.30;99.90;;;;;;5036141;28;20037;-54
2022/01/31 03:32:38;;;;;;;17.30;2.55;;;6.00;99.90;;;;;;5035198;28;20021;-50
2022/01/31 03:35:04;;;;;;;20.88;3.28;;;6.00;99.90;;;;;;5034975;28;20029;-50
2022/01/31 03:37:30;;;;;;;12.25;2.40;;;5.80;99.90;;;;;;5035161;28;20039;-49
2022/01/31 03:39:55;;;;;;;9.77;2.47;;;6.00;99.90;;;;;;5035973;28;20025;-48
2022/01/31 03:42:21;;;;;;;12.88;3.05;;;5.60;99.90;;;;;;5036039;28;20104;-48
2022/01/31 03:44:47;;;;;;;14.85;3.03;;;5.20;99.90;;;;;;5034660;28;20078;-50
2022/01/31 03:47:17;;;;;;;7.88;1.92;;;5.00;99.90;;;;;;5035520;28;20025;-49
2022/01/31 03:49:43;;;;;;;9.43;1.80;;;5.30;99.90;;;;;;5034554;28;20021;-49
2022/01/31 03:52:08;;;;;;;14.27;2.72;;;5.20;99.90;;;;;;5035172;28;20021;-51
2022/01/31 03:54:34;;;;;;;13.75;2.88;;;5.40;99.90;;;;;;5035732;28;20499;-49
2022/01/31 03:57:00;;;;;;;13.00;2.05;;;5.40;99.90;;;;;;5034479;28;20029;-48
2022/01/31 03:59:25;;;;;;;13.48;2.50;;;5.90;99.90;;;;;;5035716;28;20040;-51
2022/01/31 04:01:51;;;;;;;6.80;1.73;;;5.90;99.90;;;;;;5034936;28;20460;-48
2022/01/31 04:04:17;;;;;;;5.80;2.63;;;6.00;99.90;;;;;;5035093;28;20048;-50
2022/01/31 04:06:43;;;;;;;9.90;2.30;;;5.70;99.90;;;;;;5034383;28;20475;-50
2022/01/31 04:09:09;;;;;;;7.95;2.20;;;5.40;99.90;;;;;;5035320;28;20109;-48
2022/01/31 04:11:34;;;;;;;13.20;2.65;;;5.40;99.90;;;;;;5034646;28;20021;-49
2022/01/31 04:14:00;;;;;;;16.30;2.45;;;5.60;99.90;;;;;;5035469;28;20029;-49
2022/01/31 04:16:26;;;;;;;8.13;2.58;;;5.80;99.90;;;;;;5035593;28;20064;-50
2022/01/31 04:18:52;;;;;;;13.18;2.03;;;5.90;99.90;;;;;;5035223;28;20104;-49
2022/01/31 04:21:18;;;;;;;9.15;2.13;;;6.10;99.90;;;;;;5034127;28;20033;-50
2022/01/31 04:23:43;;;;;;;10.88;2.55;;;6.00;99.90;;;;;;5033836;28;20026;-48
2022/01/31 04:26:14;;;;;;;9.80;2.92;;;5.80;99.90;;;;;;5033957;28;20618;-49
2022/01/31 04:33:39;;;;;;;8.75;2.15;;;6.20;99.90;;;;;;5035661;28;20112;-48
2022/01/31 04:36:06;;;;;;;11.32;2.13;;;6.10;99.90;;;;;;5034952;28;20044;-52
2022/01/31 04:38:33;;;;;;;17.48;2.40;;;6.00;99.90;;;;;;5034764;28;20025;-49
2022/01/31 04:40:59;;;;;;;10.15;2.03;;;6.10;99.90;;;;;;5034874;28;20037;-50
2022/01/31 04:43:25;;;;;;;15.65;2.50;;;6.10;99.90;;;;;;5034648;28;20029;-49
2022/01/31 04:45:51;;;;;;;9.77;2.22;;;6.10;99.90;;;;;;5033496;28;20018;-49
2022/01/31 04:48:19;;;;;;;14.95;3.05;;;6.00;99.90;;;;;;5033479;28;20032;-49
2022/01/31 04:50:46;;;;;;;9.88;2.08;;;6.20;99.90;;;;;;5033332;28;20026;-49
2022/01/31 04:53:13;;;;;;;9.80;2.80;;;6.10;99.90;;;;;;5034918;28;20021;-49
2022/01/31 04:55:39;;;;;;;10.25;2.40;;;6.10;99.90;;;;;;5034582;28;20026;-49
2022/01/31 04:58:06;;;;;;;11.05;2.03;;;5.80;99.90;;;;;;5034792;28;20092;-52
2022/01/31 05:00:33;;;;;;;14.30;3.42;;;5.60;99.90;;;;;;5035482;28;20125;-49
2022/01/31 05:02:58;;;;;;;18.83;4.45;;;5.30;99.90;;;;;;5033469;28;20513;-50
2022/01/31 05:05:24;;;;;;;9.82;3.08;;;5.00;99.90;;;;;;5034651;28;20113;-50
2022/01/31 05:07:53;;;;;;;13.40;3.50;;;5.00;99.90;;;;;;5034265;28;20030;-49
2022/01/31 05:10:18;;;;;;;7.45;2.30;;;4.80;99.90;;;;;;5033682;28;20032;-49
2022/01/31 05:12:44;;;;;;;11.70;3.60;;;4.60;99.90;;;;;;5033452;28;20104;-49
2022/01/31 05:15:10;;;;;;;13.70;3.25;;;4.50;99.90;;;;;;5034594;28;20033;-51
2022/01/31 05:17:35;;;;;;;12.50;3.55;;;4.40;99.90;;;;;;5034580;28;20444;-51
2022/01/31 05:20:01;;;;;;;10.82;2.78;;;4.30;99.90;;;;;;5033230;28;20111;-51
2022/01/31 05:22:27;;;;;;;19.95;3.47;;;4.20;99.90;;;;;;5034488;28;20126;-49
2022/01/31 05:24:52;;;;;;;8.27;2.67;;;4.30;99.90;;;;;;5033135;28;20025;-49
2022/01/31 05:27:18;;;;;;;10.73;3.15;;;4.30;99.90;;;;;;5033247;28;20049;-49
2022/01/31 05:29:44;;;;;;;11.80;3.00;;;4.30;99.90;;;;;;5034233;28;20025;-49
2022/01/31 05:32:09;;;;;;;13.52;2.78;;;4.40;99.90;;;;;;5033905;28;20029;-50
2022/01/31 05:34:35;;;;;;;11.80;3.28;;;4.50;99.90;;;;;;5033288;28;20057;-51
2022/01/31 05:37:01;;;;;;;12.85;2.92;;;4.70;99.90;;;;;;5033346;28;20021;-49
2022/01/31 05:39:26;;;;;;;7.60;2.03;;;4.90;99.90;;;;;;5034061;28;20025;-51
2022/01/31 05:41:53;;;;;;;12.85;2.35;;;5.00;99.90;;;;;;5032899;28;20065;-49
2022/01/31 05:44:19;;;;;;;6.70;1.80;;;5.00;99.90;;;;;;5032735;28;20026;-51
2022/01/31 05:46:45;;;;;;;14.57;4.05;;;5.00;99.90;;;;;;5034113;28;20104;-49
2022/01/31 05:49:11;;;;;;;5.00;2.25;;;5.00;99.90;;;;;;5034236;28;20041;-51
2022/01/31 05:52:05;;;;;;;11.57;2.28;;;5.00;99.90;;;;;;5033925;28;20075;-50
2022/01/31 05:54:36;;;;;;;5.25;2.05;;;5.00;99.90;;;;;;5033912;28;20033;-50
2022/01/31 05:57:01;;;;;;;4.90;1.88;;;4.90;99.90;;;;;;5032881;28;20036;-51
2022/01/31 05:59:27;;;;;;;6.05;1.90;;;4.90;99.90;;;;;;5032461;28;20041;-49
2022/01/31 06:01:53;;;;;;;3.78;1.55;;;5.00;99.90;;;;;;5033809;28;20025;-51
2022/01/31 06:04:19;;;;;;;4.55;1.58;;;5.00;99.90;;;;;;5033801;28;20104;-55
2022/01/31 06:06:45;;;;;;;11.73;1.88;;;5.10;99.90;;;;;;5033826;28;20495;-51
2022/01/31 06:09:11;;;;;;;6.00;1.70;;;5.10;99.90;;;;;;5033846;28;20464;-50
2022/01/31 06:11:36;;;;;;;3.30;1.90;;;5.20;99.90;;;;;;5032880;28;20032;-52
2022/01/31 06:14:10;;;;;;;3.85;2.10;;;5.10;99.90;;;;;;5033187;28;20383;-50
2022/01/31 06:16:36;;;;;;;4.70;2.50;;;5.20;99.90;;;;;;5032400;28;20030;-51
2022/01/31 06:19:02;;;;;;;14.60;5.68;;;5.30;99.90;;;;;;5031447;28;20025;-49
2022/01/31 06:21:28;;;;;;;15.55;6.32;;;5.30;99.90;;;;;;5032297;28;20021;-49
2022/01/31 06:23:54;;;;;;;6.88;3.30;;;5.30;99.90;;;;;;5033495;28;20030;-50
2022/01/31 06:26:21;;;;;;;14.52;3.28;;;5.30;99.90;;;;;;5033102;28;20025;-51
2022/01/31 06:28:50;;;;;;;7.30;3.13;;;5.30;99.90;;;;;;5033863;28;20148;-51
2022/01/31 06:31:16;;;;;;;7.50;2.67;;;5.30;99.90;;;;;;5032600;28;20048;-48
2022/01/31 06:33:42;;;;;;;5.45;3.00;;;5.30;99.90;;;;;;5033018;28;20074;-49
2022/01/31 06:36:09;;;;;;;11.73;4.05;;;5.30;99.90;;;;;;5033439;28;20036;-50
2022/01/31 06:38:38;;;;;;;7.68;3.17;;;5.30;99.90;;;;;;5032103;28;20083;-49
2022/01/31 06:41:07;;;;;;;11.15;4.63;;;5.30;99.90;;;;;;5033293;28;20029;-50
2022/01/31 06:43:32;;;;;;;6.50;3.15;;;5.30;99.90;;;;;;5031998;28;20025;-48
2022/01/31 06:45:58;;;;;;;5.85;2.80;;;5.20;99.90;;;;;;5033278;28;20026;-49
2022/01/31 06:48:23;;;;;;;3.75;1.83;;;5.20;99.90;;;;;;5033185;28;20033;-50
2022/01/31 06:50:49;;;;;;;4.43;1.80;;;5.20;99.90;;;;;;5032076;28;20036;-49
2022/01/31 06:53:17;;;;;;;2.30;1.77;;;5.20;99.90;;;;;;5032016;28;20017;-49
2022/01/31 06:55:43;;;;;;;8.50;1.83;;;5.20;99.90;;;;;;5033328;28;20014;-49
2022/01/31 06:58:09;;;;;;;3.42;2.17;;;5.20;99.90;;;;;;5031834;28;20087;-49
2022/01/31 07:00:34;;;;;;;6.40;2.63;;;5.20;99.90;;;;;;5033917;28;20030;-49
2022/01/31 07:03:02;;;;;;;5.28;2.95;;;5.30;99.90;;;;;;5033426;28;20025;-49
2022/01/31 07:05:28;;;;;;;7.63;3.08;;;5.30;99.90;;;;;;5033092;28;20021;-49
2022/01/31 07:07:54;;;;;;;7.22;4.03;;;5.40;99.90;;;;;;5032142;28;20104;-49
2022/01/31 07:10:19;;;;;;;6.10;2.40;;;5.40;99.90;;;;;;5032992;28;20025;-49
2022/01/31 07:12:53;;;;;;;4.50;2.10;;;5.40;99.90;;;;;;5032205;28;20365;-51
2022/01/31 07:15:19;;;;;;;4.78;1.80;;;5.40;99.90;;;;;;5033042;28;20100;-49
2022/01/31 07:17:46;;;;;;;4.78;2.67;;;5.40;99.90;;;;;;5033248;28;20060;-48
2022/01/31 07:20:20;;;;;;;2.95;2.17;;;5.40;99.90;;;;;;5031991;28;20029;-50
2022/01/31 07:22:52;;;;;;;14.63;4.95;;;5.50;99.90;;;;;;5032553;28;20037;-52
2022/01/31 07:25:34;;;;;;;12.95;4.40;;;5.50;99.90;;;;;;5032865;28;20024;-49
2022/01/31 07:28:11;;;;;;;10.27;3.78;;;5.50;99.90;;;;;;5033186;28;20050;-49
2022/01/31 07:30:40;;;;;;;7.15;3.10;;;5.60;99.90;;;;;;5035738;28;20032;-53
2022/01/31 07:33:10;;;;;;;6.65;2.50;;;5.50;99.90;;;;;;5036606;28;20017;-51
2022/01/31 07:35:36;;;;;;;8.10;2.88;;;5.50;99.90;;;;;;5036510;28;20025;-49
2022/01/31 07:38:02;;;;;;;8.48;4.03;;;5.50;99.90;;;;;;5035302;28;20116;-48
2022/01/31 07:40:28;;;;;;;12.63;2.92;;;5.50;99.90;;;;;;5035582;28;20078;-49
2022/01/31 07:42:53;;;;;;;9.73;4.40;;;5.60;99.90;;;;;;5036460;28;20136;-50
2022/01/31 07:45:19;;;;;;;9.13;3.28;;;5.70;99.90;;;;;;5035171;28;20025;-48
2022/01/31 07:47:45;;;;;;;10.43;3.97;;;5.80;99.90;;;;;;5035452;28;20032;-53
2022/01/31 07:50:12;;;;;;;14.30;4.60;;;5.80;99.90;;;;;;5036167;28;20483;-50
2022/01/31 07:52:39;;;;;;;8.80;3.17;;;5.90;99.90;;;;;;5035233;28;20030;-51
2022/01/31 07:55:05;;;;;;;7.88;3.67;;;5.90;99.90;;;;;;5035804;28;20048;-50
2022/01/31 07:57:31;;;;;;;11.05;4.60;;;5.90;99.90;;;;;;5036362;28;20112;-52
2022/01/31 07:59:56;;;;;;;21.08;7.13;;;6.00;99.90;;;;;;5034634;28;20068;-50
2022/01/31 08:02:22;;;;;;;22.30;6.28;;;6.10;99.90;;;;;;5036300;28;20043;-51
2022/01/31 08:04:48;;;;;;;23.92;8.75;;;6.10;99.90;;;;;;5034635;28;20116;-51
2022/01/31 08:07:14;;;;;;;21.00;8.00;;;6.10;99.90;;;;;;5035900;28;20096;-50
2022/01/31 08:09:40;;;;;;;12.27;5.03;;;6.10;99.90;;;;;;5035184;28;20022;-51
2022/01/31 08:12:06;;;;;;;20.83;7.40;;;6.10;99.90;;;;;;5034617;28;20021;-49
2022/01/31 08:14:32;;;;;;;4.88;2.33;;;6.10;99.90;;;;;;5036092;28;20022;-53
2022/01/31 08:16:57;;;;;;;7.38;3.08;;;6.20;99.90;;;;;;5034626;28;20031;-50
2022/01/31 08:19:23;;;;;;;13.68;3.80;;;6.30;99.90;;;;;;5035954;28;20112;-53
2022/01/31 08:21:49;;;;;;;15.27;4.72;;;6.30;99.90;;;;;;5036024;28;20111;-50
2022/01/31 08:24:14;;;;;;;10.55;4.05;;;6.30;99.90;;;;;;5036015;28;20179;-51
2022/01/31 08:26:40;;;;;;;12.73;4.35;;;6.30;99.90;;;;;;5035620;28;20025;-53
2022/01/31 08:29:28;;;;;;;12.50;5.25;;;6.50;99.90;;;;;;5034580;28;20026;-50
2022/01/31 08:31:54;;;;;;;28.70;12.48;;;6.50;99.90;;;;;;5034276;28;20021;-55
2022/01/31 08:37:04;;;;;;;12.98;4.40;;;6.70;99.90;;;;;;5035640;28;20036;-50
2022/01/31 08:39:30;;;;;;;12.70;5.35;;;6.80;99.90;;;;;;5034077;28;20030;-53
2022/01/31 08:41:55;;;;;;;15.25;4.78;;;6.80;99.90;;;;;;5034080;28;20464;-48
2022/01/31 08:44:22;;;;;;;16.90;5.38;;;6.80;99.90;;;;;;5034020;28;20120;-49
2022/01/31 08:46:49;;;;;;;17.20;6.18;;;6.80;99.90;;;;;;5034037;28;20033;-48
2022/01/31 08:49:15;;;;;;;20.60;8.35;;;6.80;99.90;;;;;;5034565;28;20022;-48
2022/01/31 08:51:43;;;;;;;15.88;7.45;;;6.80;99.90;;;;;;5035132;28;20056;-48
2022/01/31 08:54:10;;;;;;;9.93;4.13;;;6.80;99.90;;;;;;5034216;28;20428;-48
2022/01/31 09:00:00;;;;;;;6.38;1.73;;;6.80;99.90;;;;;;5035267;28;20181;-51
2022/01/31 09:02:37;;;;;;;5.20;2.13;;;6.80;99.90;;;;;;5034433;28;20029;-49
2022/01/31 09:05:03;;;;;;;4.03;1.50;;;6.80;99.90;;;;;;5034238;28;20438;-49
2022/01/31 09:07:30;;;;;;;3.95;1.80;;;6.80;99.90;;;;;;5034972;28;20022;-48
2022/01/31 09:09:58;;;;;;;3.03;1.33;;;6.80;99.90;;;;;;5034244;28;20025;-47
2022/01/31 09:12:29;;;;;;;4.15;1.42;;;6.80;99.90;;;;;;5033781;28;20480;-47
2022/01/31 09:14:55;;;;;;;5.50;1.65;;;6.80;99.90;;;;;;5033529;28;20053;-50
2022/01/31 09:17:20;;;;;;;5.72;1.20;;;6.80;99.90;;;;;;5034146;28;20057;-50
2022/01/31 09:19:46;;;;;;;5.43;1.70;;;6.80;99.90;;;;;;5033882;28;20032;-49
2022/01/31 09:22:12;;;;;;;3.42;1.00;;;6.90;99.90;;;;;;5034586;28;20029;-49
2022/01/31 09:24:39;;;;;;;2.70;1.20;;;7.00;99.90;;;;;;5034486;28;20373;-52
2022/01/31 09:27:06;;;;;;;2.17;1.10;;;7.00;99.90;;;;;;5033495;28;20049;-48
2022/01/31 09:29:32;;;;;;;2.47;1.40;;;7.00;99.90;;;;;;5033095;28;20148;-49
2022/01/31 09:31:59;;;;;;;3.20;1.95;;;7.00;99.90;;;;;;5033121;28;20060;-52
2022/01/31 09:34:26;;;;;;;4.15;1.15;;;6.90;99.90;;;;;;5033065;28;20021;-55
2022/01/31 09:36:51;;;;;;;2.22;1.42;;;6.90;99.90;;;;;;5034561;28;20045;-49
2022/01/31 09:39:17;;;;;;;1.30;1.20;;;7.10;99.90;;;;;;5032915;28;20476;-48
2022/01/31 09:41:46;;;;;;;2.65;1.08;;;7.10;99.90;;;;;;5034159;28;20086;-47
2022/01/31 09:44:43;;;;;;;1.25;0.93;;;7.10;99.90;;;;;;5033357;28;20084;-49
2022/01/31 09:47:23;;;;;;;2.33;1.23;;;7.30;99.90;;;;;;5034030;28;20021;-47
2022/01/31 09:49:51;;;;;;;2.83;1.00;;;7.30;99.90;;;;;;5034249;28;20025;-47
2022/01/31 09:52:17;;;;;;;0.90;0.70;;;7.20;99.90;;;;;;5033910;28;20080;-47
2022/01/31 09:54:47;;;;;;;1.88;0.73;;;7.20;99.90;;;;;;5032817;28;20025;-49
2022/01/31 09:57:12;;;;;;;2.88;1.13;;;7.20;99.90;;;;;;5032694;28;20033;-47
2022/01/31 09:59:38;;;;;;;4.60;1.00;;;7.20;99.90;;;;;;5032912;28;20056;-53
2022/01/31 10:02:11;;;;;;;2.33;1.00;;;7.10;99.90;;;;;;5033539;28;20375;-49
2022/01/31 10:04:45;;;;;;;8.20;1.20;;;7.00;99.90;;;;;;5033715;28;20076;-49
2022/01/31 10:07:13;;;;;;;4.03;0.98;;;7.00;99.90;;;;;;5033835;28;20132;-51
2022/01/31 10:09:38;;;;;;;2.00;0.85;;;7.00;99.90;;;;;;5033654;28;20018;-49
2022/01/31 10:12:10;;;;;;;1.88;0.93;;;6.90;99.90;;;;;;5032647;28;20025;-50
2022/01/31 10:17:33;;;;;;;6.03;1.90;;;7.10;99.90;;;;;;5033746;28;20098;-48
2022/01/31 10:20:03;;;;;;;4.13;0.93;;;7.00;99.90;;;;;;5032264;28;20057;-51
2022/01/31 10:22:31;;;;;;;2.25;1.50;;;7.00;99.90;;;;;;5032250;28;20403;-50
2022/01/31 10:24:58;;;;;;;1.30;0.88;;;7.10;99.90;;;;;;5032072;28;20029;-50
2022/01/31 10:27:31;;;;;;;1.52;0.77;;;7.10;99.90;;;;;;5031944;28;20036;-53
2022/01/31 10:30:13;;;;;;;1.60;1.00;;;7.10;99.90;;;;;;5031984;28;20029;-49
2022/01/31 10:32:42;;;;;;;2.85;0.80;;;7.10;99.90;;;;;;5032621;28;20028;-51
2022/01/31 10:35:17;;;;;;;1.10;1.00;;;7.10;99.90;;;;;;5032640;28;20030;-49
2022/01/31 10:37:44;;;;;;;2.45;1.00;;;7.10;99.90;;;;;;5033709;28;20478;-51
2022/01/31 10:45:54;;;;;;;3.40;0.98;;;7.40;99.90;;;;;;5033876;28;20082;-48
2022/01/31 10:56:49;;;;;;;3.17;0.98;;;7.50;99.90;;;;;;5033430;28;20053;-48
2022/01/31 10:59:19;;;;;;;1.38;0.60;;;7.40;99.90;;;;;;5033025;28;20064;-51
2022/01/31 11:01:49;;;;;;;1.30;0.75;;;7.40;99.90;;;;;;5031713;28;20037;-52
2022/01/31 11:04:15;;;;;;;1.98;0.63;;;7.30;99.90;;;;;;5034043;28;20026;-51
2022/01/31 11:06:43;;;;;;;4.43;0.60;;;7.30;99.90;;;;;;5035710;28;20032;-49
2022/01/31 11:09:11;;;;;;;1.63;0.70;;;7.30;99.90;;;;;;5036875;28;20014;-49
2022/01/31 11:11:43;;;;;;;3.00;0.93;;;7.40;99.90;;;;;;5036832;28;20104;-53
2022/01/31 11:14:10;;;;;;;2.20;0.60;;;7.40;99.90;;;;;;5037249;28;20053;-51
2022/01/31 11:16:37;;;;;;;1.67;1.00;;;7.30;99.90;;;;;;5035964;28;20087;-49
2022/01/31 11:19:07;;;;;;;2.60;0.90;;;7.40;99.90;;;;;;5036873;28;20026;-50
2022/01/31 11:21:35;;;;;;;1.33;0.95;;;7.50;99.90;;;;;;5035640;28;20116;-48
2022/01/31 11:24:19;;;;;;;3.28;1.50;;;7.50;99.90;;;;;;5036219;28;20119;-48
2022/01/31 11:27:08;;;;;;;8.20;3.35;;;7.40;99.90;;;;;;5036815;28;20021;-48
2022/01/31 11:29:37;;;;;;;1.58;1.00;;;7.40;99.90;;;;;;5036947;28;20017;-51
2022/01/31 11:32:04;;;;;;;4.38;2.15;;;7.50;99.90;;;;;;5037099;28;20025;-48
2022/01/31 11:34:31;;;;;;;4.60;2.60;;;7.40;99.90;;;;;;5036460;28;20017;-49
2022/01/31 11:36:57;;;;;;;4.95;2.13;;;7.40;99.90;;;;;;5036553;28;20056;-48
2022/01/31 11:39:23;;;;;;;7.00;2.70;;;7.50;99.90;;;;;;5035236;28;20021;-47
2022/01/31 11:41:58;;;;;;;5.13;2.05;;;7.50;99.90;;;;;;5035158;28;20029;-49
2022/01/31 11:44:52;;;;;;;7.85;2.75;;;7.60;99.90;;;;;;5036283;28;20025;-50
2022/01/31 11:47:23;;;;;;;4.18;1.75;;;7.80;99.90;;;;;;5036336;28;20472;-49
2022/01/31 11:49:57;;;;;;;11.93;3.35;;;7.80;99.90;;;;;;5036360;28;20025;-48
2022/01/31 11:52:24;;;;;;;6.03;3.15;;;7.90;99.90;;;;;;5036321;28;20026;-49
2022/01/31 11:54:52;;;;;;;9.02;2.83;;;7.90;99.90;;;;;;5035007;28;20021;-49
2022/01/31 11:57:29;;;;;;;6.75;2.40;;;8.00;99.90;;;;;;5034895;28;20029;-49
2022/01/31 11:59:57;;;;;;;6.00;2.50;;;8.10;99.90;;;;;;5036030;28;20064;-53
2022/01/31 12:02:29;;;;;;;7.07;1.33;;;8.20;99.90;;;;;;5034756;28;20026;-48
2022/01/31 12:04:59;;;;;;;;;;;8.30;99.90;;;;;;5035064;28;20111;-50
2022/01/31 12:07:40;;;;;;;7.70;3.78;;;8.20;99.90;;;;;;5035676;28;19905;-48
2022/01/31 12:10:26;;;;;;;2.25;1.23;;;8.10;99.90;;;;;;5035993;28;20018;-48
2022/01/31 12:13:00;;;;;;;1.40;1.00;;;8.10;99.90;;;;;;5036186;28;20037;-48
2022/01/31 12:23:57;;;;;;;0.95;0.70;;;7.90;99.90;;;;;;5036049;28;20117;-50
2022/01/31 12:26:28;;;;;;;1.15;0.57;;;7.90;99.90;;;;;;5035618;28;20033;-53
2022/01/31 12:28:56;;;;;;;1.52;0.73;;;7.90;99.90;;;;;;5034228;28;20022;-48
2022/01/31 12:31:35;;;;;;;0.75;0.60;;;7.70;99.90;;;;;;5035829;28;20034;-50
2022/01/31 12:34:20;;;;;;;1.02;0.43;;;7.80;99.90;;;;;;5035434;28;20033;-49
2022/01/31 12:36:50;;;;;;;0.57;0.57;;;7.80;99.90;;;;;;5035027;28;20032;-51
2022/01/31 12:42:14;;;;;;;0.75;0.70;;;7.80;99.90;;;;;;5036514;28;20040;-58
2022/01/31 12:44:41;;;;;;;1.05;0.40;;;7.80;99.90;;;;;;5035332;28;20116;-52
2022/01/31 12:47:19;;;;;;;0.85;0.70;;;7.70;99.90;;;;;;5036817;28;20032;-50
2022/01/31 12:50:06;;;;;;;0.57;0.43;;;7.70;99.90;;;;;;5036016;28;20032;-53
2022/01/31 12:52:36;;;;;;;0.40;0.32;;;7.80;99.90;;;;;;5034869;28;20026;-49
2022/01/31 12:55:10;;;;;;;2.47;0.50;;;7.70;99.90;;;;;;5036543;28;20029;-50
2022/01/31 12:57:48;;;;;;;0.55;0.40;;;7.80;99.90;;;;;;5036820;28;20026;-51
2022/01/31 13:00:41;;;;;;;0.70;0.50;;;7.90;99.90;;;;;;5047722;28;20047;-53
2022/01/31 13:03:10;;;;;;;0.55;0.35;;;8.00;99.90;;;;;;5043871;28;20152;-53
2022/01/31 13:05:38;;;;;;;4.22;0.45;;;8.10;99.90;;;;;;5034893;28;20399;-55
2022/01/31 13:08:23;;;;;;;0.73;0.73;;;8.10;99.90;;;;;;5033601;28;20026;-54
2022/01/31 13:10:51;;;;;;;0.63;0.35;;;8.10;99.90;;;;;;5033651;28;20032;-55
2022/01/31 13:13:33;;;;;;;0.30;0.30;;;8.00;99.90;;;;;;5033876;28;20076;-50
2022/01/31 13:16:10;;;;;;;0.82;0.43;;;8.00;99.90;;;;;;5034006;28;20025;-51
2022/01/31 13:18:36;;;;;;;2.03;0.63;;;8.00;99.90;;;;;;5034550;28;20448;-49
2022/01/31 13:21:05;;;;;;;1.73;1.20;;;8.00;99.90;;;;;;5034498;28;20100;-50
2022/01/31 13:23:32;;;;;;;1.25;0.90;;;7.80;99.90;;;;;;5034508;28;20048;-53
2022/01/31 13:26:00;;;;;;;2.17;1.27;;;7.70;99.90;;;;;;5033196;28;20021;-49
2022/01/31 13:28:26;;;;;;;2.22;1.27;;;7.80;99.90;;;;;;5034041;28;20022;-50
2022/01/31 13:30:52;;;;;;;0.82;0.60;;;7.80;99.90;;;;;;5034403;28;20028;-50
2022/01/31 13:33:18;;;;;;;0.55;0.45;;;8.00;99.90;;;;;;5034406;28;20053;-49
2022/01/31 13:35:46;;;;;;;1.23;0.80;;;8.00;99.90;;;;;;5033007;28;20029;-50
2022/01/31 13:38:15;;;;;;;1.33;0.70;;;8.00;99.90;;;;;;5034367;28;20046;-50
2022/01/31 13:40:47;;;;;;;0.90;0.70;;;8.10;99.90;;;;;;5033333;28;20021;-52
2022/01/31 13:43:34;;;;;;;0.73;0.32;;;7.90;99.90;;;;;;5033052;28;20391;-53